Time;durP1;ratioP1;P1;durP2;ratioP2;P2;SDS_P1;SDS_P2;PMS_P1;PMS_P2;Temp;Humidity;BMP_temperature;BMP_pressure;BME280_temperature;BME280_humidity;BME280_pressure;Samples;Min_cycle;Max_cycle;Signal;HPM_P1;HPM_P2
2021/08/24 00:01:22;;;;;;;5.97;2.80;;;;;;;10.42;51.41;96384.69;5010673;28;20030;-64
2021/08/24 00:03:47;;;;;;;7.88;3.67;;;;;;;10.41;51.77;96388.38;5011900;28;20037;-64
2021/08/24 00:06:13;;;;;;;5.78;4.10;;;;;;;10.37;51.73;96385.16;5011199;28;20423;-64
2021/08/24 00:08:40;;;;;;;7.22;4.85;;;;;;;10.29;51.96;96385.13;5011635;28;20090;-65
2021/08/24 00:11:06;;;;;;;6.60;2.23;;;;;;;10.32;51.14;96385.66;5009537;28;20179;-64
2021/08/24 00:13:31;;;;;;;4.90;3.28;;;;;;;10.16;52.23;96383.72;4993705;28;20165;-64
2021/08/24 00:15:57;;;;;;;5.50;2.90;;;;;;;10.20;51.86;96386.91;5011587;28;20061;-64
2021/08/24 00:18:22;;;;;;;3.50;2.50;;;;;;;10.27;51.17;96379.13;5010967;28;20110;-64
2021/08/24 00:20:49;;;;;;;4.85;3.65;;;;;;;10.29;51.67;96385.97;5011887;28;20140;-64
2021/08/24 00:23:16;;;;;;;4.70;3.72;;;;;;;10.01;52.59;96390.56;5011031;28;20532;-64
2021/08/24 00:25:41;;;;;;;7.70;4.55;;;;;;;9.95;53.81;96379.56;5010927;28;20532;-64
2021/08/24 00:28:07;;;;;;;6.90;4.90;;;;;;;9.78;53.41;96377.75;5011472;28;20074;-64
2021/08/24 00:30:32;;;;;;;6.53;2.85;;;;;;;9.81;56.19;96378.31;5010879;28;20600;-64
2021/08/24 00:32:58;;;;;;;5.18;3.65;;;;;;;10.01;52.24;96372.78;5010413;28;20082;-64
2021/08/24 00:35:23;;;;;;;4.07;3.10;;;;;;;10.05;53.39;96374.19;5011267;28;20078;-64
2021/08/24 00:37:49;;;;;;;5.60;2.80;;;;;;;10.08;51.81;96373.03;5009209;28;20109;-65
2021/08/24 00:40:14;;;;;;;7.53;3.20;;;;;;;10.07;51.35;96376.69;5004432;28;20086;-65
2021/08/24 00:42:40;;;;;;;4.65;2.90;;;;;;;10.02;50.99;96374.44;5010555;28;20122;-65
2021/08/24 00:45:07;;;;;;;4.57;2.33;;;;;;;9.96;49.79;96381.22;5010359;28;20077;-65
2021/08/24 00:47:33;;;;;;;7.95;2.28;;;;;;;9.93;50.64;96376.22;5009389;28;20539;-65
2021/08/24 00:50:01;;;;;;;2.15;1.73;;;;;;;9.95;50.22;96371.59;5009105;28;20106;-65
2021/08/24 00:52:26;;;;;;;4.00;2.22;;;;;;;9.89;50.04;96379.34;4993560;28;20172;-65
2021/08/24 00:54:54;;;;;;;2.30;2.05;;;;;;;9.87;50.10;96382.16;5010565;28;20114;-64
2021/08/24 00:57:21;;;;;;;4.00;2.28;;;;;;;9.93;50.14;96380.72;5008042;28;20241;-64
2021/08/24 00:59:48;;;;;;;2.83;2.10;;;;;;;10.00;49.83;96387.09;4993147;28;20157;-64
2021/08/24 01:02:18;;;;;;;3.72;2.75;;;;;;;10.00;49.35;96376.44;5010138;28;20448;-65
2021/08/24 01:04:44;;;;;;;3.67;2.17;;;;;;;9.94;49.90;96390.34;5008830;28;20078;-64
2021/08/24 01:07:25;;;;;;;6.93;2.10;;;;;;;9.92;50.10;96382.53;5009506;28;20132;-64
2021/08/24 01:10:23;;;;;;;1.98;1.80;;;;;;;9.84;49.52;96385.13;5004183;28;20107;-65
2021/08/24 01:13:10;;;;;;;6.25;2.28;;;;;;;9.67;51.22;96395.66;4987182;28;20121;-64
2021/08/24 01:15:38;;;;;;;5.00;1.90;;;;;;;9.54;51.43;96390.72;5011864;28;20074;-65
2021/08/24 01:18:25;;;;;;;6.40;2.75;;;;;;;9.58;50.50;96388.56;5008953;28;20120;-65
2021/08/24 01:21:09;;;;;;;4.45;2.70;;;;;;;9.66;50.66;96379.84;5006554;28;20806;-65
2021/08/24 01:24:01;;;;;;;6.38;2.63;;;;;;;9.66;50.55;96380.66;5010842;28;20380;-64
2021/08/24 01:26:38;;;;;;;5.28;2.50;;;;;;;9.59;50.05;96382.28;5001596;28;20586;-65
2021/08/24 01:29:12;;;;;;;3.83;1.90;;;;;;;9.52;49.63;96383.88;5006410;28;20114;-65
2021/08/24 01:32:00;;;;;;;4.53;2.30;;;;;;;9.46;50.83;96377.34;5010372;28;20092;-66
2021/08/24 01:34:44;;;;;;;;;;;;;;;9.39;51.06;96381.59;5008342;28;20444;-67
2021/08/24 01:37:51;;;;;;;2.67;2.10;;;;;;;9.44;50.76;96379.31;5008938;28;19993;-65
2021/08/24 01:40:21;;;;;;;4.50;2.05;;;;;;;9.43;50.47;96385.63;5010309;28;20086;-64
2021/08/24 01:42:46;;;;;;;4.78;2.33;;;;;;;9.38;49.88;96388.72;5002801;28;20106;-64
2021/08/24 01:45:23;;;;;;;3.17;2.10;;;;;;;9.30;50.22;96386.84;5003674;28;20576;-64
2021/08/24 01:47:58;;;;;;;4.65;2.58;;;;;;;9.27;49.90;96389.78;5008901;28;20093;-64
2021/08/24 01:50:37;;;;;;;3.50;2.70;;;;;;;9.30;50.27;96388.66;5010083;28;20193;-65
2021/08/24 01:53:07;;;;;;;3.83;2.13;;;;;;;9.19;50.49;96387.88;4992125;28;20125;-65
2021/08/24 01:55:36;;;;;;;3.85;2.00;;;;;;;9.26;50.34;96390.78;5008819;28;20562;-65
2021/08/24 01:58:13;;;;;;;3.95;2.22;;;;;;;9.26;50.85;96390.78;4992291;28;20138;-65
2021/08/24 02:00:40;;;;;;;4.25;2.40;;;;;;;9.35;50.69;96398.84;4991233;28;20070;-65
2021/08/24 02:03:10;;;;;;;3.28;2.75;;;;;;;9.25;51.40;96397.06;5008611;28;20123;-65
2021/08/24 02:05:45;;;;;;;4.10;2.88;;;;;;;9.35;51.06;96394.34;4991857;28;20149;-66
2021/08/24 02:08:13;;;;;;;4.00;2.75;;;;;;;9.32;51.19;96386.69;4992687;28;20073;-66
2021/08/24 02:10:39;;;;;;;5.15;2.08;;;;;;;9.33;51.20;96389.19;4988159;28;20206;-66
2021/08/24 02:13:05;;;;;;;4.97;2.35;;;;;;;9.39;50.65;96382.41;4988448;28;20123;-66
2021/08/24 02:15:37;;;;;;;3.03;1.80;;;;;;;9.40;50.95;96392.06;5007667;28;20085;-66
2021/08/24 02:18:03;;;;;;;5.05;2.63;;;;;;;9.36;52.28;96392.53;5007721;28;20571;-66
2021/08/24 02:20:34;;;;;;;4.47;2.42;;;;;;;9.44;50.29;96387.28;4988901;28;20083;-67
2021/08/24 02:23:03;;;;;;;3.53;2.47;;;;;;;9.38;50.14;96391.38;4988400;28;20106;-66
2021/08/24 02:25:32;;;;;;;5.00;2.10;;;;;;;9.39;49.99;96389.56;5007729;28;20184;-66
2021/08/24 02:28:09;;;;;;;5.75;2.15;;;;;;;9.29;49.50;96386.97;4985506;28;20168;-66
2021/08/24 02:30:35;;;;;;;6.82;2.42;;;;;;;9.22;50.55;96391.22;4986342;28;20556;-66
2021/08/24 02:33:00;;;;;;;4.82;1.92;;;;;;;9.24;49.90;96398.06;4991289;28;20109;-66
2021/08/24 02:35:53;;;;;;;5.80;2.80;;;;;;;9.08;50.58;96396.91;5008455;28;20078;-66
2021/08/24 02:38:23;;;;;;;5.72;1.90;;;;;;;9.09;50.42;96395.09;4993612;28;20217;-66
2021/08/24 02:41:01;;;;;;;2.35;1.80;;;;;;;9.03;50.28;96391.19;5009158;28;20133;-67
2021/08/24 02:43:41;;;;;;;6.50;2.10;;;;;;;9.06;50.39;96395.38;4975351;28;20101;-65
2021/08/24 02:46:08;;;;;;;3.20;2.70;;;;;;;9.03;50.55;96395.66;5005652;28;20200;-65
2021/08/24 02:48:34;;;;;;;2.95;2.10;;;;;;;9.02;50.29;96396.66;5008131;28;20531;-65
2021/08/24 02:50:59;;;;;;;6.97;2.90;;;;;;;8.95;50.55;96399.09;4993656;28;20120;-67
2021/08/24 02:53:25;;;;;;;3.97;2.10;;;;;;;8.64;51.70;96402.00;5007732;28;20106;-66
2021/08/24 02:55:50;;;;;;;2.85;2.47;;;;;;;8.73;51.81;96406.41;5009448;28;20097;-66
2021/08/24 02:58:16;;;;;;;2.78;2.30;;;;;;;8.75;51.36;96403.63;5005594;28;20117;-67
2021/08/24 03:00:41;;;;;;;3.85;2.20;;;;;;;8.87;50.87;96402.44;5007728;28;20079;-67
2021/08/24 03:03:07;;;;;;;3.05;2.17;;;;;;;8.84;52.20;96402.72;5009257;28;20169;-66
2021/08/24 03:05:32;;;;;;;2.00;1.90;;;;;;;8.98;51.08;96398.78;5008378;28;20134;-67
2021/08/24 03:07:58;;;;;;;6.22;2.47;;;;;;;8.91;51.58;96403.00;5008931;28;20090;-64
2021/08/24 03:10:24;;;;;;;4.18;2.20;;;;;;;8.95;51.48;96407.06;5008263;28;20129;-64
2021/08/24 03:12:54;;;;;;;2.70;2.00;;;;;;;8.99;51.44;96403.13;4990628;28;20077;-65
2021/08/24 03:15:36;;;;;;;3.95;2.70;;;;;;;9.05;51.22;96401.69;5007888;28;20097;-64
2021/08/24 03:18:05;;;;;;;3.72;2.85;;;;;;;9.00;52.79;96402.13;5008172;28;20141;-64
2021/08/24 03:20:34;;;;;;;3.80;2.20;;;;;;;9.04;52.06;96398.19;5007400;28;20082;-64
2021/08/24 03:23:00;;;;;;;3.55;2.22;;;;;;;9.09;51.52;96405.72;5008555;28;20185;-64
2021/08/24 03:25:25;;;;;;;2.60;2.40;;;;;;;9.08;51.16;96404.88;5006955;28;20106;-65
2021/08/24 03:27:52;;;;;;;3.70;2.45;;;;;;;9.08;52.88;96406.69;5008363;28;20090;-66
2021/08/24 03:30:18;;;;;;;3.78;2.30;;;;;;;9.04;51.63;96403.50;5006745;28;20454;-66
2021/08/24 03:32:44;;;;;;;4.03;2.60;;;;;;;9.02;52.69;96401.97;5007005;28;20081;-66
2021/08/24 03:35:10;;;;;;;3.30;2.10;;;;;;;9.05;52.63;96407.81;5008997;28;20078;-66
2021/08/24 03:37:35;;;;;;;4.85;2.45;;;;;;;9.19;51.29;96403.00;5006785;28;20627;-65
2021/08/24 03:40:01;;;;;;;5.07;2.53;;;;;;;9.19;51.89;96400.34;5008562;28;20030;-65
2021/08/24 03:42:26;;;;;;;5.88;3.22;;;;;;;9.19;51.89;96400.34;5008391;28;20038;-66
2021/08/24 03:44:52;;;;;;;4.70;1.90;;;;;;;9.21;52.31;96403.66;5008380;28;20103;-66
2021/08/24 03:47:17;;;;;;;2.80;2.50;;;;;;;9.23;51.91;96400.84;5008844;28;20471;-66
2021/08/24 03:49:43;;;;;;;2.65;2.08;;;;;;;9.13;51.42;96399.13;5007692;28;20117;-66
2021/08/24 03:52:08;;;;;;;3.83;1.95;;;;;;;9.14;51.92;96403.44;5008465;28;20056;-66
2021/08/24 03:54:34;;;;;;;3.67;1.98;;;;;;;9.16;50.61;96400.63;5006775;28;20045;-66
2021/08/24 03:56:59;;;;;;;2.58;1.90;;;;;;;9.12;51.02;96404.56;5004992;28;20042;-66
2021/08/24 03:59:25;;;;;;;2.63;1.83;;;;;;;9.16;50.86;96406.78;5011446;28;20037;-66
2021/08/24 04:01:50;;;;;;;2.17;1.98;;;;;;;9.13;50.87;96406.22;5010212;28;20041;-66
2021/08/24 04:04:15;;;;;;;2.00;1.80;;;;;;;9.15;50.84;96399.78;5011902;28;20042;-66
2021/08/24 04:06:41;;;;;;;1.70;1.60;;;;;;;9.15;50.42;96405.09;5011380;28;20147;-66
2021/08/24 04:09:06;;;;;;;3.63;1.75;;;;;;;9.05;50.29;96404.34;5011836;28;20045;-66
2021/08/24 04:11:32;;;;;;;3.50;1.90;;;;;;;9.06;50.29;96401.53;5011454;28;20491;-66
2021/08/24 04:13:57;;;;;;;2.75;1.92;;;;;;;9.08;49.99;96410.19;5011426;28;20164;-65
2021/08/24 04:16:23;;;;;;;2.47;1.85;;;;;;;9.06;50.12;96417.47;5011682;28;20094;-67
2021/08/24 04:18:49;;;;;;;2.60;2.15;;;;;;;9.04;50.07;96414.13;5010990;28;20150;-66
2021/08/24 04:21:16;;;;;;;2.35;1.90;;;;;;;9.00;49.75;96407.44;5011482;28;20855;-67
2021/08/24 04:23:41;;;;;;;2.97;1.80;;;;;;;8.92;49.83;96409.97;5011783;28;20729;-66
2021/08/24 04:26:07;;;;;;;2.15;1.50;;;;;;;8.90;49.97;96411.91;5010181;28;20037;-66
2021/08/24 04:28:33;;;;;;;5.97;1.83;;;;;;;8.89;49.75;96416.41;5012009;28;20027;-66
2021/08/24 04:30:58;;;;;;;1.65;1.42;;;;;;;8.85;49.20;96409.72;5009922;28;20157;-67
2021/08/24 04:33:23;;;;;;;2.75;1.40;;;;;;;8.88;49.21;96413.91;5011267;28;20102;-66
2021/08/24 04:35:53;;;;;;;2.30;2.10;;;;;;;8.81;49.57;96417.13;5011560;28;20740;-66
2021/08/24 04:38:18;;;;;;;2.90;1.90;;;;;;;8.78;49.47;96416.59;5011084;28;20231;-66
2021/08/24 04:40:44;;;;;;;2.28;1.17;;;;;;;8.77;49.40;96414.94;5011055;28;20486;-66
2021/08/24 04:43:09;;;;;;;1.58;1.48;;;;;;;8.72;50.15;96418.03;5010034;28;20090;-66
2021/08/24 04:45:34;;;;;;;4.05;2.63;;;;;;;8.70;51.26;96417.31;5009934;28;20106;-67
2021/08/24 04:48:00;;;;;;;3.65;2.08;;;;;;;8.54;54.06;96424.09;5009519;28;20079;-66
2021/08/24 04:50:25;;;;;;;4.65;2.38;;;;;;;8.41;53.57;96420.94;5001112;28;20153;-66
2021/08/24 04:52:51;;;;;;;3.35;1.77;;;;;;;8.41;52.10;96424.44;5009293;28;20124;-66
2021/08/24 04:55:16;;;;;;;2.88;1.77;;;;;;;8.28;51.88;96419.44;5010143;28;20082;-67
2021/08/24 04:57:41;;;;;;;5.45;1.70;;;;;;;8.46;51.67;96428.47;5005929;28;20114;-65
2021/08/24 05:00:08;;;;;;;3.78;1.70;;;;;;;8.45;51.47;96427.63;5009696;28;20085;-65
2021/08/24 05:02:33;;;;;;;2.55;1.67;;;;;;;8.47;52.53;96423.00;5006662;28;20064;-65
2021/08/24 05:04:59;;;;;;;3.42;1.70;;;;;;;8.69;51.40;96423.63;5009607;28;20033;-65
2021/08/24 05:07:24;;;;;;;2.33;1.73;;;;;;;8.86;50.66;96429.13;5009234;28;20124;-65
2021/08/24 05:09:49;;;;;;;3.08;1.80;;;;;;;8.96;50.73;96422.00;5007992;28;20079;-65
2021/08/24 05:12:15;;;;;;;2.78;1.75;;;;;;;8.97;50.85;96422.84;5009479;28;20126;-65
2021/08/24 05:14:40;;;;;;;2.80;1.80;;;;;;;8.99;50.51;96429.66;5009371;28;20129;-65
2021/08/24 05:17:06;;;;;;;4.57;1.70;;;;;;;9.11;50.53;96430.28;5009274;28;20118;-65
2021/08/24 05:19:31;;;;;;;2.85;1.90;;;;;;;9.22;49.91;96426.59;5009504;28;20094;-65
2021/08/24 05:21:57;;;;;;;2.80;1.90;;;;;;;9.33;49.78;96429.06;5008942;28;20106;-65
2021/08/24 05:24:22;;;;;;;1.50;1.40;;;;;;;9.41;49.14;96422.97;5009805;28;20078;-65
2021/08/24 05:26:47;;;;;;;2.08;1.52;;;;;;;9.42;49.39;96429.13;5008839;28;20117;-65
2021/08/24 05:29:16;;;;;;;2.90;1.70;;;;;;;9.48;49.13;96433.84;5008712;28;20141;-65
2021/08/24 05:31:41;;;;;;;;;;;;;;;9.51;49.44;96430.88;5008047;28;20086;-65
2021/08/24 05:34:06;;;;;;;4.70;1.63;;;;;;;9.65;49.39;96436.66;5008935;28;20024;-65
2021/08/24 05:36:32;;;;;;;4.72;1.65;;;;;;;9.76;49.54;96432.94;5009216;28;20627;-65
2021/08/24 05:38:58;;;;;;;5.55;1.70;;;;;;;9.80;48.92;96435.13;5008815;28;20556;-65
2021/08/24 05:41:23;;;;;;;3.85;1.90;;;;;;;9.88;49.08;96436.19;5008026;28;20463;-65
2021/08/24 05:43:48;;;;;;;2.70;1.90;;;;;;;9.91;48.91;96435.88;5008440;28;20086;-65
2021/08/24 05:46:14;;;;;;;3.72;1.75;;;;;;;9.98;49.26;96434.28;5008345;28;20108;-65
2021/08/24 05:48:40;;;;;;;3.58;1.90;;;;;;;10.16;49.04;96430.81;5002021;28;20026;-65
2021/08/24 05:51:15;;;;;;;3.15;1.70;;;;;;;10.19;49.13;96426.00;5007263;28;20036;-65
2021/08/24 05:53:41;;;;;;;1.77;1.50;;;;;;;10.42;48.83;96429.94;5003037;28;20398;-65
2021/08/24 05:56:08;;;;;;;1.60;1.40;;;;;;;10.57;48.84;96428.38;5009028;28;20082;-65
2021/08/24 05:58:33;;;;;;;2.42;1.88;;;;;;;10.59;48.91;96431.72;4999101;28;20125;-66
2021/08/24 06:00:58;;;;;;;1.83;1.73;;;;;;;10.87;48.24;96428.88;5004169;28;20559;-65
2021/08/24 06:03:24;;;;;;;3.67;2.05;;;;;;;10.73;49.68;96426.78;5008077;28;20029;-65
2021/08/24 06:05:49;;;;;;;5.05;2.30;;;;;;;11.02;48.98;96428.25;5008018;28;20042;-65
2021/08/24 06:08:15;;;;;;;4.55;1.80;;;;;;;11.37;48.03;96429.06;4997435;28;20082;-65
2021/08/24 06:10:40;;;;;;;2.25;1.58;;;;;;;11.51;46.71;96432.06;5004529;28;20141;-66
2021/08/24 06:13:06;;;;;;;4.32;1.98;;;;;;;11.46;48.11;96432.56;5005030;28;20044;-66
2021/08/24 06:15:32;;;;;;;4.28;2.10;;;;;;;11.54;47.85;96431.75;5004289;28;20380;-66
2021/08/24 06:17:57;;;;;;;2.53;1.83;;;;;;;10.88;49.24;96435.00;5003557;28;20643;-66
2021/08/24 06:20:23;;;;;;;2.55;1.92;;;;;;;11.50;48.46;96436.56;5003754;28;20110;-66
2021/08/24 06:22:48;;;;;;;2.67;1.90;;;;;;;11.75;47.18;96439.28;5003787;28;20683;-66
2021/08/24 06:25:15;;;;;;;3.38;2.20;;;;;;;11.83;47.39;96441.09;5001865;28;20102;-67
2021/08/24 06:27:41;;;;;;;2.97;2.42;;;;;;;12.17;47.09;96441.97;5003745;28;20121;-67
2021/08/24 06:30:06;;;;;;;4.18;2.10;;;;;;;12.17;46.15;96439.31;5001710;28;20049;-67
2021/08/24 06:32:37;;;;;;;2.70;1.90;;;;;;;11.60;45.66;96452.41;5004066;28;20036;-65
2021/08/24 06:35:03;;;;;;;3.97;2.33;;;;;;;12.02;46.83;96437.28;5002013;28;20114;-66
2021/08/24 06:37:28;;;;;;;1.98;1.77;;;;;;;11.92;45.12;96435.78;5003238;28;20098;-65
2021/08/24 06:39:54;;;;;;;3.40;2.10;;;;;;;12.21;44.62;96439.81;5001854;28;20187;-65
2021/08/24 06:42:19;;;;;;;2.50;2.10;;;;;;;12.19;44.88;96433.78;5002741;28;20450;-65
2021/08/24 06:44:45;;;;;;;3.20;2.00;;;;;;;12.45;44.07;96438.13;5003207;28;20490;-65
2021/08/24 06:47:10;;;;;;;3.80;2.30;;;;;;;12.14;44.95;96440.47;5003027;28;20022;-67
2021/08/24 06:49:36;;;;;;;8.40;1.70;;;;;;;12.57;43.40;96431.41;5003104;28;20080;-65
2021/08/24 06:52:04;;;;;;;3.17;2.20;;;;;;;12.51;43.76;96443.59;5001634;28;20082;-66
2021/08/24 06:54:30;;;;;;;3.58;2.50;;;;;;;12.95;43.50;96446.00;5003548;28;20137;-66
2021/08/24 06:56:55;;;;;;;3.25;2.13;;;;;;;13.15;44.11;96444.59;5000186;28;20467;-65
2021/08/24 06:59:20;;;;;;;2.72;2.20;;;;;;;13.02;42.63;96439.00;5003044;28;20156;-67
2021/08/24 07:01:47;;;;;;;4.13;2.50;;;;;;;12.92;42.42;96444.50;5001347;28;20106;-67
2021/08/24 07:04:12;;;;;;;5.43;2.38;;;;;;;13.07;41.35;96441.13;5003144;28;20078;-65
2021/08/24 07:06:39;;;;;;;4.07;2.67;;;;;;;13.09;45.79;96447.94;5001988;28;20117;-65
2021/08/24 07:09:05;;;;;;;4.32;2.92;;;;;;;13.10;42.62;96441.63;5002851;28;20109;-65
2021/08/24 07:11:30;;;;;;;3.60;2.05;;;;;;;13.36;41.63;96442.34;5001274;28;20118;-66
2021/08/24 07:13:58;;;;;;;3.63;2.53;;;;;;;13.35;41.69;96438.81;5002486;28;20535;-66
2021/08/24 07:16:24;;;;;;;4.32;2.90;;;;;;;13.22;42.09;96454.59;5001006;28;20456;-66
2021/08/24 07:18:53;;;;;;;4.43;2.50;;;;;;;13.37;41.71;96449.34;5002380;28;20172;-66
2021/08/24 07:21:19;;;;;;;4.22;3.13;;;;;;;13.30;42.19;96441.19;5002557;28;20808;-66
2021/08/24 07:23:46;;;;;;;3.88;2.47;;;;;;;13.27;41.43;96438.88;5001753;28;20029;-65
2021/08/24 07:26:11;;;;;;;3.63;2.30;;;;;;;13.29;43.52;96437.66;5003011;28;20710;-66
2021/08/24 07:28:37;;;;;;;4.15;2.63;;;;;;;13.46;42.54;96434.91;5000422;28;20082;-66
2021/08/24 07:31:02;;;;;;;3.38;2.40;;;;;;;13.31;42.91;96434.81;5000281;28;20537;-65
2021/08/24 07:33:28;;;;;;;3.25;2.38;;;;;;;13.57;41.31;96437.16;5001539;28;20042;-65
2021/08/24 07:35:53;;;;;;;3.38;2.30;;;;;;;13.69;42.17;96444.78;5004559;28;20026;-65
2021/08/24 07:38:19;;;;;;;3.30;2.35;;;;;;;13.77;42.19;96446.59;5004144;28;20110;-65
2021/08/24 07:40:44;;;;;;;7.95;2.55;;;;;;;13.74;42.21;96441.59;5004595;28;20442;-65
2021/08/24 07:43:10;;;;;;;3.38;2.17;;;;;;;13.83;41.26;96436.00;5004121;28;20644;-65
2021/08/24 07:45:36;;;;;;;3.38;2.60;;;;;;;13.82;42.24;96444.22;5002333;28;20496;-65
2021/08/24 07:48:01;;;;;;;4.65;2.40;;;;;;;13.85;40.35;96446.53;5002226;28;20128;-65
2021/08/24 07:50:26;;;;;;;2.90;2.20;;;;;;;13.93;40.73;96449.19;5004514;28;20172;-65
2021/08/24 07:52:52;;;;;;;5.00;2.30;;;;;;;14.33;39.55;96437.47;5003716;28;20121;-66
2021/08/24 07:55:18;;;;;;;3.25;2.40;;;;;;;14.10;39.95;96443.69;4997723;28;20102;-68
2021/08/24 07:57:43;;;;;;;3.78;2.00;;;;;;;14.21;39.96;96437.91;5001702;28;20102;-65
2021/08/24 08:00:09;;;;;;;2.90;2.15;;;;;;;14.27;41.44;96443.53;5003495;28;20114;-66
2021/08/24 08:02:35;;;;;;;4.93;2.30;;;;;;;14.52;39.95;96440.63;4998107;28;20106;-65
2021/08/24 08:05:01;;;;;;;3.88;2.10;;;;;;;14.78;38.46;96447.41;5002827;28;20533;-65
2021/08/24 08:07:26;;;;;;;3.88;2.20;;;;;;;14.28;40.32;96439.88;5002373;28;20078;-65
2021/08/24 08:09:51;;;;;;;7.65;2.30;;;;;;;14.56;39.68;96449.97;5002929;28;20110;-65
2021/08/24 08:12:17;;;;;;;2.25;1.90;;;;;;;14.31;39.38;96444.88;5003188;28;20057;-65
2021/08/24 08:14:43;;;;;;;5.32;2.10;;;;;;;14.57;39.46;96454.31;5001862;28;20865;-65
2021/08/24 08:17:10;;;;;;;3.78;2.25;;;;;;;14.70;39.74;96446.47;5002166;28;20034;-66
2021/08/24 08:19:36;;;;;;;3.65;2.22;;;;;;;14.77;39.43;96461.84;5001979;28;20998;-66
2021/08/24 08:22:03;;;;;;;3.22;2.30;;;;;;;15.01;40.04;96463.41;5002597;28;20524;-66
2021/08/24 08:24:28;;;;;;;4.32;2.20;;;;;;;15.25;38.48;96464.13;5002626;28;20378;-66
2021/08/24 08:26:54;;;;;;;3.33;2.42;;;;;;;14.95;39.13;96461.47;5002763;28;20054;-67
2021/08/24 08:29:19;;;;;;;3.83;2.30;;;;;;;15.44;37.40;96454.63;5002735;28;20098;-66
2021/08/24 08:31:46;;;;;;;2.85;2.22;;;;;;;15.38;38.95;96450.03;5000613;28;20078;-66
2021/08/24 08:34:11;;;;;;;7.93;2.40;;;;;;;15.26;38.10;96457.72;4995953;28;20113;-66
2021/08/24 08:36:37;;;;;;;2.88;2.10;;;;;;;15.41;38.28;96460.41;5003510;28;20078;-66
2021/08/24 08:39:03;;;;;;;2.80;2.20;;;;;;;15.70;38.81;96444.41;5002260;28;20121;-66
2021/08/24 08:41:33;;;;;;;4.88;2.28;;;;;;;15.43;39.62;96458.34;5002679;28;20478;-66
2021/08/24 08:44:04;;;;;;;2.67;2.20;;;;;;;15.53;38.31;96462.59;5002950;28;20089;-67
2021/08/24 08:47:00;;;;;;;4.25;2.03;;;;;;;15.72;39.13;96463.88;5002162;28;20110;-67
2021/08/24 08:49:51;;;;;;;3.88;2.25;;;;;;;16.03;38.10;96469.94;5002779;28;20114;-66
2021/08/24 08:52:54;;;;;;;4.30;2.20;;;;;;;16.19;37.68;96464.31;4999703;28;20165;-67
2021/08/24 08:55:34;;;;;;;4.22;2.20;;;;;;;16.43;37.06;96459.59;4997514;28;20400;-68
2021/08/24 08:58:12;;;;;;;2.80;2.00;;;;;;;16.42;38.06;96474.03;4981241;28;20464;-68
2021/08/24 09:00:50;;;;;;;4.25;2.28;;;;;;;16.67;36.21;96467.38;5000579;28;20082;-68
2021/08/24 09:03:45;;;;;;;4.18;2.10;;;;;;;16.73;37.34;96469.28;5000857;28;20125;-67
2021/08/24 09:06:10;;;;;;;3.13;2.10;;;;;;;16.96;37.53;96469.00;4994288;28;20118;-67
2021/08/24 09:08:37;;;;;;;3.58;2.00;;;;;;;17.18;36.55;96463.59;5002924;28;20070;-68
2021/08/24 09:11:05;;;;;;;4.13;2.40;;;;;;;17.20;36.36;96466.88;5000967;28;20126;-68
2021/08/24 09:13:33;;;;;;;3.63;2.22;;;;;;;17.37;36.35;96464.69;5002437;28;20575;-66
2021/08/24 09:16:02;;;;;;;2.95;2.15;;;;;;;17.47;36.49;96466.19;5003406;28;20205;-67
2021/08/24 09:18:39;;;;;;;5.43;2.30;;;;;;;17.48;35.51;96462.47;5001329;28;20103;-66
2021/08/24 09:21:05;;;;;;;4.63;2.20;;;;;;;17.76;36.35;96467.72;5001552;28;20656;-66
2021/08/24 09:23:30;;;;;;;3.75;2.50;;;;;;;17.96;35.61;96469.66;5002696;28;20078;-67
2021/08/24 09:26:11;;;;;;;5.53;2.53;;;;;;;18.31;36.12;96471.31;5002430;28;20102;-67
2021/08/24 09:28:37;;;;;;;2.72;2.00;;;;;;;18.17;35.36;96462.41;5000208;28;20177;-68
2021/08/24 09:31:02;;;;;;;3.65;2.60;;;;;;;18.53;34.44;96458.47;5001892;28;20407;-68
2021/08/24 09:33:28;;;;;;;4.60;2.38;;;;;;;18.79;34.46;96459.50;4983635;28;20109;-68
2021/08/24 09:35:54;;;;;;;5.68;2.65;;;;;;;18.89;33.70;96463.63;5001341;28;20203;-68
2021/08/24 09:38:47;;;;;;;5.13;2.30;;;;;;;19.18;33.79;96458.78;5000466;28;20246;-68
2021/08/24 09:41:19;;;;;;;4.50;2.47;;;;;;;19.33;34.32;96459.38;4990359;28;20086;-68
2021/08/24 09:43:45;;;;;;;4.47;2.30;;;;;;;19.66;33.56;96451.31;5001806;28;20098;-70
2021/08/24 09:46:17;;;;;;;3.78;2.53;;;;;;;19.29;32.89;96447.34;5002084;28;20112;-69
2021/08/24 09:48:55;;;;;;;3.35;2.50;;;;;;;19.96;32.49;96445.38;4998204;28;20844;-66
2021/08/24 09:51:43;;;;;;;4.82;2.20;;;;;;;19.87;32.22;96446.63;4998803;28;20113;-67
2021/08/24 09:54:31;;;;;;;3.90;2.20;;;;;;;20.26;33.28;96450.13;4999658;28;20498;-68
2021/08/24 09:57:00;;;;;;;3.67;2.40;;;;;;;20.30;31.78;96445.94;4995119;28;20125;-67
2021/08/24 09:59:30;;;;;;;3.58;2.38;;;;;;;20.38;31.93;96463.75;4982708;28;20105;-67
2021/08/24 10:01:55;;;;;;;4.75;2.53;;;;;;;20.57;31.61;96451.09;4993886;28;20050;-68
2021/08/24 10:04:21;;;;;;;3.53;2.55;;;;;;;20.55;30.35;96453.22;5002213;28;20089;-68
2021/08/24 10:06:59;;;;;;;4.38;2.55;;;;;;;20.86;30.40;96451.47;5001511;28;20121;-68
2021/08/24 10:09:31;;;;;;;3.63;2.35;;;;;;;21.17;31.73;96456.97;4995119;28;20177;-68
2021/08/24 10:12:14;;;;;;;3.90;2.50;;;;;;;21.35;29.40;96453.44;5001086;28;20557;-69
2021/08/24 10:14:39;;;;;;;4.68;2.40;;;;;;;21.88;29.50;96461.94;5001322;28;20616;-68
2021/08/24 10:17:11;;;;;;;5.63;2.50;;;;;;;21.90;29.16;96462.50;5002588;28;20101;-69
2021/08/24 10:19:37;;;;;;;4.60;2.60;;;;;;;22.36;29.49;96462.06;5000927;28;20041;-68
2021/08/24 10:22:25;;;;;;;3.95;2.33;;;;;;;22.55;28.62;96459.28;4983164;28;20038;-68
2021/08/24 10:25:01;;;;;;;5.53;2.50;;;;;;;22.84;28.39;96459.38;5000114;28;20079;-68
2021/08/24 10:27:32;;;;;;;5.43;2.30;;;;;;;22.45;28.31;96462.56;4999955;28;20080;-68
2021/08/24 10:30:07;;;;;;;5.47;2.47;;;;;;;22.56;27.96;96469.06;4999413;28;20197;-69
2021/08/24 10:32:34;;;;;;;4.78;2.65;;;;;;;22.87;28.41;96469.78;4998986;28;20530;-69
2021/08/24 10:35:08;;;;;;;3.85;2.50;;;;;;;22.79;28.57;96470.97;4999043;28;20531;-69
2021/08/24 10:37:38;;;;;;;3.90;2.30;;;;;;;22.90;28.41;96472.03;4998627;28;20116;-68
2021/08/24 10:40:07;;;;;;;4.57;2.33;;;;;;;22.65;28.43;96467.69;4999273;28;20098;-68
2021/08/24 10:42:32;;;;;;;6.07;2.53;;;;;;;22.76;28.25;96465.19;5000939;28;20571;-68
2021/08/24 10:45:00;;;;;;;4.07;2.50;;;;;;;22.41;28.64;96466.78;4993256;28;20208;-69
2021/08/24 10:47:41;;;;;;;7.25;2.53;;;;;;;22.75;27.96;96452.69;4999554;28;20078;-69
2021/08/24 10:50:13;;;;;;;4.22;2.50;;;;;;;22.63;28.75;96464.34;5001015;28;20109;-68
2021/08/24 10:52:58;;;;;;;3.72;2.50;;;;;;;22.76;28.63;96457.03;5000083;28;20089;-69
2021/08/24 10:55:34;;;;;;;4.22;2.58;;;;;;;22.78;28.62;96458.44;4995455;28;20109;-68
2021/08/24 10:58:24;;;;;;;3.58;2.40;;;;;;;22.67;27.99;96459.28;4987236;28;20590;-69
2021/08/24 11:01:07;;;;;;;3.25;2.50;;;;;;;22.39;28.35;96456.19;4996515;28;20569;-69
2021/08/24 11:03:55;;;;;;;4.28;2.42;;;;;;;22.43;28.44;96458.44;4975018;28;20111;-69
2021/08/24 11:06:42;;;;;;;4.43;3.30;;;;;;;22.34;28.74;96452.50;4998487;28;20106;-68
2021/08/24 11:09:26;;;;;;;6.35;3.05;;;;;;;22.26;28.67;96453.66;5003147;28;20082;-68
2021/08/24 11:12:16;;;;;;;6.20;3.05;;;;;;;22.66;28.49;96466.59;5003957;28;20041;-68
2021/08/24 11:15:32;;;;;;;3.78;2.75;;;;;;;22.73;28.87;96465.66;5000399;28;20037;-65
2021/08/24 11:18:05;;;;;;;4.85;2.80;;;;;;;22.51;27.24;96467.03;4980609;28;20827;-65
2021/08/24 11:20:44;;;;;;;3.45;2.67;;;;;;;22.57;28.77;96465.28;5006730;28;20098;-66
2021/08/24 11:23:42;;;;;;;5.20;2.90;;;;;;;22.91;28.62;96464.72;5009567;28;20105;-67
2021/08/24 11:26:33;;;;;;;4.32;3.15;;;;;;;22.85;27.85;96473.78;5007736;28;20160;-66
2021/08/24 11:29:06;;;;;;;4.28;3.20;;;;;;;23.02;28.15;96474.72;5010012;28;20040;-66
2021/08/24 11:31:40;;;;;;;4.93;3.00;;;;;;;23.16;27.06;96472.63;5004079;28;20021;-66
2021/08/24 11:34:18;;;;;;;5.10;2.50;;;;;;;23.19;26.54;96468.59;4993264;28;20145;-67
2021/08/24 11:36:47;;;;;;;4.00;2.97;;;;;;;23.17;27.56;96466.13;5006023;28;20865;-67
2021/08/24 11:39:21;;;;;;;4.05;3.28;;;;;;;23.06;27.95;96472.38;5009413;28;20114;-67
2021/08/24 11:41:48;;;;;;;3.50;2.38;;;;;;;23.39;26.95;96481.75;4993196;28;20102;-68
2021/08/24 11:44:20;;;;;;;3.10;2.43;;;;;;;23.58;26.38;96473.44;5009832;28;20025;-68
2021/08/24 11:47:09;;;;;;;3.83;2.45;;;;;;;23.69;26.52;96486.16;5008562;28;20132;-68
2021/08/24 11:49:47;;;;;;;3.60;2.70;;;;;;;23.67;26.21;96482.88;4996811;28;20587;-68